Hubbard, Ohio
Current Conditions -  °F | °C
As of 6:51 PM on Monday 20 Oct 2014 (Local Time) from KYNG Reporting Station
Light Rain Light Rain  
Wind Chill: 52°   Ceiling: 3500
Heat Index: 52°   Visibility: 10mi
Dew Point: 45°   Wind: 7mph
Humidity: 77%   Direction: 190°S
Pressure: 29.85"   Gusts: NA
Location:  41.16°N, 80.57°W
Report Text: KYNG 202251Z 19006KT 10SM -RA OVC035 11/07 A2985 RMK AO2 SLP111 P0000 T01110072
Loading
Personal Weather Stations






























Interactive Weather Map
Tropical Storm Tracking
New forecast layout! Learn more

10-Day Weather Forecast

Advertisements
Track Severe Weather on mobile